Terminal Aerodrome Forecast
Issued by NWS Des Moines, IA

Home | Current Version | Previous Version | Text Only | Print | Product List | Glossary On
Versions: 1 2 3 4 5 6 7 8 9 10 11 12 13 14 15 16 17
000
FTUS43 KDMX 302329
TAFALO
TAF
KALO 302329Z 3100/3124 34011KT P6SM SCT025 BKN040
     FM310300 34016G23KT P6SM SCT025 BKN040
     FM310800 34022G36KT P6SM SCT025 BKN030
     FM311400 34014G25KT P6SM SCT080=

USA.gov is the U.S. government's official web portal to all federal, state and local government web resources and services.